Terminal Aerodrome Forecast
Issued by NWS Tuscon, AZ

Home | Current Version | Previous Version | Text Only | Print | Product List | Glossary On
Versions: 1 2 3 4 5 6 7 8 9 10 11 12 13
970
FTUS45 KTWC 261136
TAFTUS
TAF
KTUS 261136Z 2612/2712 18011KT P6SM BKN110
     FM261600 VRB04KT P6SM SCT080 SCT110
     FM262300 24007KT P6SM VCSH SCT080 BKN110
     FM270100 20007KT P6SM SCT080 BKN110
     FM270500 15007KT P6SM SCT110=

USA.gov is the U.S. government's official web portal to all federal, state and local government web resources and services.